| time (UTC) | temp F | wind direction | speed MPH | gust MPH | rain 1hr in | rain 24hr in | rain mn in | humidity % | barometer mb |
| 20260510024037 | 65 | 45 | 2.0 | 2.0 | 0.00 | 0.00 | 0.00 | 71 | 1011.6 |
| 20260510023516 | 66 | 68 | 3.0 | 3.0 | 0.00 | 0.00 | 0.00 | 71 | 1011.6 |
| 20260510023001 | 67 | 90 | 2.0 | 2.0 | 0.00 | 0.00 | 0.00 | 69 | 1011.6 |
| 20260510022442 | 67 | 45 | 3.0 | 3.0 | 0.00 | 0.00 | 0.00 | 67 | 1011.6 |
| 20260510021921 | 68 | 90 | 3.0 | 3.0 | 0.00 | 0.00 | 0.00 | 66 | 1011.6 |
| 20260510021401 | 69 | 23 | 3.0 | 3.0 | 0.00 | 0.00 | 0.00 | 65 | 1011.6 |
| 20260510020846 | 71 | 23 | 3.0 | 3.0 | 0.00 | 0.00 | 0.00 | 63 | 1011.6 |
| 20260510020307 | 72 | 90 | 3.0 | 3.0 | 0.00 | 0.00 | 0.00 | 61 | 1011.7 |
| 20260510015746 | 74 | 0 | 2.0 | 2.0 | 0.00 | 0.00 | 0.00 | 59 | 1011.7 |
| 20260510015231 | 74 | 338 | 4.0 | 4.0 | 0.00 | 0.00 | 0.00 | 59 | 1011.6 |
| 20260510014711 | 74 | 90 | 3.0 | 3.0 | 0.00 | 0.00 | 0.00 | 58 | 1011.6 |
| 20260510014151 | 75 | 23 | 4.0 | 4.0 | 0.00 | 0.00 | 0.00 | 57 | 1011.6 |
| 20260510013116 | 77 | 90 | 4.0 | 4.0 | 0.00 | 0.00 | 0.00 | 56 | 1011.6 |
| 20260510012556 | 80 | 90 | 4.0 | 4.0 | 0.00 | 0.00 | 0.00 | 55 | 1011.6 |
| 20260510012056 | 82 | 45 | 3.0 | 3.0 | 0.00 | 0.00 | 0.00 | 52 | 1011.6 |
| 20260510011537 | 85 | 113 | 3.0 | 3.0 | 0.00 | 0.00 | 0.00 | 51 | 1011.5 |
| 20260510011016 | 87 | 248 | 2.0 | 2.0 | 0.00 | 0.00 | 0.00 | 43 | 1011.5 |
| 20260510010517 | 88 | 90 | 3.0 | 3.0 | 0.00 | 0.00 | 0.00 | 45 | 1011.6 |
| 20260510005956 | 88 | 248 | 3.0 | 3.0 | 0.00 | 0.00 | 0.00 | 40 | 1011.6 |
| 20260510005441 | 88 | 225 | 3.0 | 3.0 | 0.00 | 0.00 | 0.00 | 41 | 1011.7 |
| 20260510004921 | 88 | 315 | 4.0 | 4.0 | 0.00 | 0.00 | 0.00 | 42 | 1011.7 |
| 20260510004402 | 90 | 248 | 3.0 | 3.0 | 0.00 | 0.00 | 0.00 | 40 | 1011.7 |
| 20260510002246 | 90 | 248 | 5.0 | 5.0 | 0.00 | 0.00 | 0.00 | 39 | 1011.9 |
| 20260510001212 | 90 | 225 | 3.0 | 3.0 | 0.00 | 0.00 | 0.00 | 40 | 1011.9 |
| 20260510000652 | 89 | 158 | 3.0 | 3.0 | 0.00 | 0.00 | 0.00 | 41 | 1012.1 |
| 20260510000131 | 89 | 225 | 3.0 | 3.0 | 0.00 | 0.00 | 0.00 | 41 | 1012.1 |
| 20260509235611 | 87 | 225 | 4.0 | 4.0 | 0.00 | 0.00 | 0.00 | 42 | 1012.1 |
| 20260509235056 | 89 | 203 | 4.0 | 4.0 | 0.00 | 0.00 | 0.00 | 41 | 1012.1 |
| 20260509233957 | 86 | 225 | 3.0 | 3.0 | 0.00 | 0.00 | 0.00 | 45 | 1012.2 |
| 20260509233442 | 88 | 203 | 3.0 | 3.0 | 0.00 | 0.00 | 0.00 | 43 | 1012.2 |
| 20260509232922 | 87 | 248 | 4.0 | 4.0 | 0.00 | 0.00 | 0.00 | 43 | 1012.2 |
| 20260509232402 | 87 | 225 | 4.0 | 4.0 | 0.00 | 0.00 | 0.00 | 43 | 1012.2 |
| 20260509231841 | 88 | 180 | 4.0 | 4.0 | 0.00 | 0.00 | 0.00 | 43 | 1012.4 |
| 20260509230807 | 87 | 203 | 4.0 | 4.0 | 0.00 | 0.00 | 0.00 | 43 | 1012.4 |
| 20260509230247 | 85 | 180 | 4.0 | 4.0 | 0.00 | 0.00 | 0.00 | 46 | 1012.6 |
| 20260509225727 | 86 | 248 | 4.0 | 4.0 | 0.00 | 0.00 | 0.00 | 45 | 1012.6 |
| 20260509225211 | 85 | 225 | 4.0 | 4.0 | 0.00 | 0.00 | 0.00 | 45 | 1012.8 |
| 20260509224652 | 85 | 225 | 5.0 | 5.0 | 0.00 | 0.00 | 0.00 | 44 | 1012.8 |
| 20260509223632 | 83 | 248 | 6.0 | 6.0 | 0.00 | 0.00 | 0.00 | 47 | 1012.8 |
| 20260509223111 | 84 | 270 | 5.0 | 5.0 | 0.00 | 0.00 | 0.00 | 48 | 1013.0 |
| 20260509222552 | 83 | 248 | 5.0 | 5.0 | 0.00 | 0.00 | 0.00 | 52 | 1013.0 |
| 20260509222038 | 83 | 248 | 4.0 | 4.0 | 0.00 | 0.00 | 0.00 | 53 | 1013.0 |
| 20260509221517 | 83 | 270 | 4.0 | 4.0 | 0.00 | 0.00 | 0.00 | 53 | 1013.1 |
| 20260509215922 | 82 | 203 | 6.0 | 6.0 | 0.00 | 0.00 | 0.00 | 53 | 1013.1 |
| 20260509215402 | 83 | 225 | 6.0 | 6.0 | 0.00 | 0.00 | 0.00 | 52 | 1013.3 |
| 20260509214321 | 84 | 225 | 5.0 | 5.0 | 0.00 | 0.00 | 0.00 | 53 | 1013.4 |
| 20260509213806 | 83 | 203 | 4.0 | 4.0 | 0.00 | 0.00 | 0.00 | 55 | 1013.4 |
| 20260509212647 | 84 | 270 | 3.0 | 3.0 | 0.00 | 0.00 | 0.00 | 55 | 1013.5 |
| 20260509211612 | 82 | 248 | 4.0 | 4.0 | 0.00 | 0.00 | 0.00 | 55 | 1013.6 |
| 20260509211052 | 84 | 135 | 3.0 | 3.0 | 0.00 | 0.00 | 0.00 | 55 | 1013.6 |
| 20260509210532 | 83 | 248 | 2.0 | 2.0 | 0.00 | 0.00 | 0.00 | 56 | 1013.7 |
| 20260509205822 | 83 | 248 | 4.0 | 4.0 | 0.00 | 0.00 | 0.00 | 56 | 1013.7 |
| 20260509205306 | 81 | 135 | 5.0 | 5.0 | 0.00 | 0.00 | 0.00 | 56 | 1013.7 |
| 20260509204747 | 82 | 203 | 5.0 | 5.0 | 0.00 | 0.00 | 0.00 | 55 | 1013.7 |
| 20260509203147 | 80 | 180 | 5.0 | 5.0 | 0.00 | 0.00 | 0.00 | 56 | 1013.8 |
| 20260509202632 | 82 | 270 | 4.0 | 4.0 | 0.00 | 0.00 | 0.00 | 56 | 1013.9 |
| 20260509202112 | 82 | 113 | 5.0 | 5.0 | 0.00 | 0.00 | 0.00 | 55 | 1013.9 |
| 20260509201052 | 80 | 203 | 5.0 | 5.0 | 0.00 | 0.00 | 0.00 | 57 | 1014.1 |
| 20260509200532 | 80 | 225 | 4.0 | 4.0 | 0.00 | 0.00 | 0.00 | 57 | 1014.1 |
| 20260509195957 | 80 | 225 | 4.0 | 4.0 | 0.00 | 0.00 | 0.00 | 56 | 1014.1 |
| 20260509195437 | 79 | 203 | 4.0 | 4.0 | 0.00 | 0.00 | 0.00 | 57 | 1014.2 |
| 20260509194917 | 80 | 225 | 5.0 | 5.0 | 0.00 | 0.00 | 0.00 | 56 | 1014.2 |
| 20260509194402 | 81 | 270 | 5.0 | 5.0 | 0.00 | 0.00 | 0.00 | 56 | 1014.3 |
| 20260509193842 | 80 | 225 | 5.0 | 5.0 | 0.00 | 0.00 | 0.00 | 57 | 1014.3 |
| 20260509193342 | 81 | 248 | 5.0 | 5.0 | 0.00 | 0.00 | 0.00 | 55 | 1014.3 |
| 20260509192822 | 80 | 225 | 4.0 | 4.0 | 0.00 | 0.00 | 0.00 | 57 | 1014.3 |
| 20260509191802 | 81 | 203 | 4.0 | 4.0 | 0.00 | 0.00 | 0.00 | 55 | 1014.4 |
| 20260509191247 | 81 | 203 | 4.0 | 4.0 | 0.00 | 0.00 | 0.00 | 55 | 1014.4 |
| 20260509190727 | 82 | 203 | 4.0 | 4.0 | 0.00 | 0.00 | 0.00 | 55 | 1014.5 |
| 20260509185647 | 81 | 203 | 2.0 | 2.0 | 0.00 | 0.00 | 0.00 | 56 | 1014.5 |
| 20260509184612 | 81 | 158 | 4.0 | 4.0 | 0.00 | 0.00 | 0.00 | 55 | 1014.5 |
| 20260509184052 | 80 | 180 | 4.0 | 4.0 | 0.00 | 0.00 | 0.00 | 55 | 1014.6 |
| 20260509183532 | 79 | 203 | 3.0 | 3.0 | 0.00 | 0.00 | 0.00 | 57 | 1014.6 |
| 20260509182457 | 81 | 225 | 2.0 | 2.0 | 0.00 | 0.00 | 0.00 | 54 | 1014.6 |
| 20260509181937 | 82 | 68 | 4.0 | 4.0 | 0.00 | 0.00 | 0.00 | 54 | 1014.7 |
| 20260509181417 | 80 | 338 | 3.0 | 3.0 | 0.00 | 0.00 | 0.00 | 55 | 1014.7 |
| 20260509180857 | 79 | 158 | 4.0 | 4.0 | 0.00 | 0.00 | 0.00 | 55 | 1014.7 |
| 20260509180342 | 79 | 113 | 3.0 | 3.0 | 0.00 | 0.00 | 0.00 | 56 | 1014.7 |
| 20260509175822 | 77 | 158 | 3.0 | 3.0 | 0.00 | 0.00 | 0.00 | 57 | 1014.7 |
| 20260509175306 | 78 | 90 | 4.0 | 4.0 | 0.00 | 0.00 | 0.00 | 57 | 1014.7 |
| 20260509174742 | 77 | 68 | 2.0 | 2.0 | 0.00 | 0.00 | 0.00 | 57 | 1014.7 |
| 20260509174227 | 77 | 45 | 4.0 | 4.0 | 0.00 | 0.00 | 0.00 | 57 | 1014.7 |
| 20260509173707 | 77 | 45 | 4.0 | 4.0 | 0.00 | 0.00 | 0.00 | 57 | 1014.7 |
| 20260509173147 | 77 | 23 | 3.0 | 3.0 | 0.00 | 0.00 | 0.00 | 57 | 1014.7 |
| 20260509172612 | 77 | 90 | 3.0 | 3.0 | 0.00 | 0.00 | 0.00 | 57 | 1014.7 |
| 20260509172052 | 77 | 23 | 4.0 | 4.0 | 0.00 | 0.00 | 0.00 | 56 | 1014.7 |
| 20260509171532 | 77 | 90 | 3.0 | 3.0 | 0.00 | 0.00 | 0.00 | 57 | 1014.7 |
| 20260509171012 | 77 | 135 | 2.0 | 2.0 | 0.00 | 0.00 | 0.00 | 57 | 1014.7 |
| 20260509170457 | 75 | 315 | 2.0 | 2.0 | 0.00 | 0.00 | 0.00 | 58 | 1014.8 |
| 20260509165417 | 74 | 270 | 1.0 | 1.0 | 0.00 | 0.00 | 0.00 | 59 | 1014.7 |
| 20260509164857 | 75 | 90 | 4.0 | 4.0 | 0.00 | 0.00 | 0.00 | 58 | 1014.7 |
| 20260509164342 | 74 | 225 | 3.0 | 3.0 | 0.00 | 0.00 | 0.00 | 60 | 1014.7 |
| 20260509163822 | 72 | 225 | 2.0 | 2.0 | 0.00 | 0.00 | 0.00 | 61 | 1014.7 |
| 20260509163302 | 72 | 68 | 4.0 | 4.0 | 0.00 | 0.00 | 0.00 | 61 | 1014.7 |
| 20260509162742 | 72 | 113 | 3.0 | 3.0 | 0.00 | 0.00 | 0.00 | 61 | 1014.8 |
| 20260509162227 | 71 | 113 | 3.0 | 3.0 | 0.00 | 0.00 | 0.00 | 62 | 1014.8 |
| 20260509161707 | 70 | 68 | 2.0 | 2.0 | 0.00 | 0.00 | 0.00 | 63 | 1014.8 |
| 20260509161148 | 69 | 45 | 2.0 | 2.0 | 0.00 | 0.00 | 0.00 | 64 | 1014.8 |
| 20260509160612 | 68 | 113 | 3.0 | 3.0 | 0.00 | 0.00 | 0.00 | 67 | 1014.8 |
| 20260509160052 | 68 | 45 | 3.0 | 3.0 | 0.00 | 0.00 | 0.00 | 65 | 1014.8 |
| 20260509155533 | 68 | 45 | 3.0 | 3.0 | 0.00 | 0.00 | 0.00 | 66 | 1014.8 |
| 20260509155012 | 68 | 90 | 3.0 | 3.0 | 0.00 | 0.00 | 0.00 | 66 | 1014.8 |
| 20260509154457 | 68 | 68 | 3.0 | 3.0 | 0.00 | 0.00 | 0.00 | 67 | 1014.8 |
| 20260509153937 | 66 | 68 | 3.0 | 3.0 | 0.00 | 0.00 | 0.00 | 68 | 1014.8 |
| 20260509152857 | 66 | 90 | 4.0 | 4.0 | 0.00 | 0.00 | 0.00 | 68 | 1014.8 |
| 20260509152342 | 66 | 90 | 3.0 | 3.0 | 0.00 | 0.00 | 0.00 | 68 | 1014.8 |
| 20260509151822 | 67 | 68 | 3.0 | 3.0 | 0.00 | 0.00 | 0.00 | 66 | 1014.8 |
| 20260509151302 | 68 | 135 | 3.0 | 3.0 | 0.00 | 0.00 | 0.00 | 65 | 1014.8 |
| 20260509150742 | 66 | 158 | 2.0 | 2.0 | 0.00 | 0.00 | 0.00 | 68 | 1014.7 |
| 20260509150228 | 66 | 113 | 1.0 | 1.0 | 0.00 | 0.00 | 0.00 | 69 | 1014.7 |
| 20260509145707 | 62 | 90 | 2.0 | 2.0 | 0.00 | 0.00 | 0.00 | 74 | 1014.7 |
| 20260509145147 | 63 | 113 | 0.0 | 0.0 | 0.00 | 0.00 | 0.00 | 78 | 1014.5 |
| 20260509144612 | 62 | 180 | 0.0 | 0.0 | 0.00 | 0.00 | 0.00 | 79 | 1014.5 |
| 20260509144052 | 61 | 158 | 0.0 | 0.0 | 0.00 | 0.00 | 0.00 | 88 | 1014.6 |
| 20260509143532 | 59 | 158 | 0.0 | 0.0 | 0.00 | 0.00 | 0.00 | 94 | 1014.6 |
| 20260509143014 | 57 | 180 | 0.0 | 0.0 | 0.00 | 0.00 | 0.00 | 97 | 1014.5 |
| 20260509141937 | 54 | 248 | 0.0 | 0.0 | 0.00 | 0.00 | 0.00 | 97 | 1014.5 |
| 20260509141418 | 54 | 248 | 0.0 | 0.0 | 0.00 | 0.00 | 0.00 | 97 | 1014.5 |
| 20260509140858 | 53 | 225 | 0.0 | 0.0 | 0.00 | 0.00 | 0.00 | 97 | 1014.5 |
| 20260509140342 | 52 | 225 | 0.0 | 0.0 | 0.00 | 0.00 | 0.00 | 97 | 1014.4 |
| 20260509135305 | 50 | 225 | 0.0 | 0.0 | 0.00 | 0.00 | 0.00 | 97 | 1014.3 |
| 20260509134742 | 49 | 225 | 0.0 | 0.0 | 0.00 | 0.00 | 0.00 | 97 | 1014.3 |
| 20260509133707 | 48 | 203 | 0.0 | 0.0 | 0.00 | 0.00 | 0.00 | 97 | 1014.2 |
| 20260509133147 | 47 | 248 | 0.0 | 0.0 | 0.00 | 0.00 | 0.00 | 97 | 1014.2 |
| 20260509132613 | 47 | 248 | 0.0 | 0.0 | 0.00 | 0.00 | 0.00 | 97 | 1014.1 |
| 20260509132112 | 46 | 225 | 0.0 | 0.0 | 0.00 | 0.00 | 0.00 | 97 | 1014.1 |
| 20260509131552 | 46 | 203 | 0.0 | 0.0 | 0.00 | 0.00 | 0.00 | 97 | 1014.2 |
| 20260509131032 | 46 | 203 | 0.0 | 0.0 | 0.00 | 0.00 | 0.00 | 97 | 1014.2 |
| 20260509130512 | 46 | 203 | 0.0 | 0.0 | 0.00 | 0.00 | 0.00 | 97 | 1014.2 |
| 20260509125957 | 46 | 225 | 0.0 | 0.0 | 0.00 | 0.00 | 0.00 | 97 | 1014.2 |
| 20260509125452 | 46 | 225 | 0.0 | 0.0 | 0.00 | 0.00 | 0.00 | 97 | 1014.1 |
| 20260509123857 | 47 | 248 | 0.0 | 0.0 | 0.00 | 0.00 | 0.00 | 97 | 1014.1 |
| 20260509123342 | 47 | 225 | 0.0 | 0.0 | 0.00 | 0.00 | 0.00 | 97 | 1014.1 |
| 20260509122838 | 47 | 225 | 0.0 | 0.0 | 0.00 | 0.00 | 0.00 | 96 | 1014.1 |
| 20260509122322 | 47 | 225 | 0.0 | 0.0 | 0.00 | 0.00 | 0.00 | 96 | 1014.1 |
| 20260509121802 | 47 | 248 | 0.0 | 0.0 | 0.00 | 0.00 | 0.00 | 96 | 1014.1 |
| 20260509121243 | 47 | 225 | 0.0 | 0.0 | 0.00 | 0.00 | 0.00 | 96 | 1014.1 |
| 20260509120722 | 47 | 203 | 0.0 | 0.0 | 0.00 | 0.00 | 0.00 | 96 | 1014.1 |
| 20260509120207 | 47 | 225 | 0.0 | 0.0 | 0.00 | 0.00 | 0.00 | 96 | 1014.1 |
| 20260509115648 | 47 | 248 | 0.0 | 0.0 | 0.00 | 0.00 | 0.00 | 96 | 1014.1 |
| 20260509115107 | 47 | 248 | 0.0 | 0.0 | 0.00 | 0.00 | 0.00 | 96 | 1014.1 |
| 20260509112953 | 47 | 248 | 0.0 | 0.0 | 0.00 | 0.00 | 0.00 | 96 | 1014.2 |
| 20260509111937 | 47 | 225 | 0.0 | 0.0 | 0.00 | 0.00 | 0.00 | 96 | 1014.2 |
| 20260509111417 | 47 | 225 | 0.0 | 0.0 | 0.00 | 0.00 | 0.00 | 96 | 1014.1 |
| 20260509110858 | 47 | 225 | 0.0 | 0.0 | 0.00 | 0.00 | 0.00 | 96 | 1014.1 |
| 20260509110338 | 47 | 225 | 0.0 | 0.0 | 0.00 | 0.00 | 0.00 | 96 | 1014.2 |
| 20260509105822 | 48 | 203 | 0.0 | 0.0 | 0.00 | 0.00 | 0.00 | 96 | 1014.2 |
| 20260509105306 | 48 | 225 | 0.0 | 0.0 | 0.00 | 0.00 | 0.00 | 96 | 1014.2 |
| 20260509104743 | 48 | 248 | 0.0 | 0.0 | 0.00 | 0.00 | 0.00 | 96 | 1014.2 |
| 20260509103707 | 48 | 225 | 0.0 | 0.0 | 0.00 | 0.00 | 0.00 | 96 | 1014.1 |
| 20260509103147 | 48 | 225 | 0.0 | 0.0 | 0.00 | 0.00 | 0.00 | 96 | 1014.1 |
| 20260509102627 | 48 | 248 | 0.0 | 0.0 | 0.00 | 0.00 | 0.00 | 96 | 1014.1 |
| 20260509102107 | 48 | 225 | 0.0 | 0.0 | 0.00 | 0.00 | 0.00 | 96 | 1014.1 |
| 20260509101553 | 48 | 225 | 0.0 | 0.0 | 0.00 | 0.00 | 0.00 | 96 | 1014.2 |
| 20260509101033 | 48 | 270 | 0.0 | 0.0 | 0.00 | 0.00 | 0.00 | 96 | 1014.2 |
| 20260509100513 | 48 | 225 | 0.0 | 0.0 | 0.00 | 0.00 | 0.00 | 96 | 1014.0 |
| 20260509095953 | 48 | 270 | 0.0 | 0.0 | 0.00 | 0.00 | 0.00 | 96 | 1014.0 |
| 20260509095437 | 48 | 225 | 0.0 | 0.0 | 0.00 | 0.00 | 0.00 | 96 | 1014.1 |
| 20260509094357 | 49 | 225 | 0.0 | 0.0 | 0.00 | 0.00 | 0.00 | 96 | 1014.1 |
| 20260509093837 | 49 | 225 | 0.0 | 0.0 | 0.00 | 0.00 | 0.00 | 96 | 1014.1 |
| 20260509092803 | 49 | 248 | 0.0 | 0.0 | 0.00 | 0.00 | 0.00 | 96 | 1014.2 |
| 20260509092242 | 49 | 293 | 0.0 | 0.0 | 0.00 | 0.00 | 0.00 | 96 | 1014.2 |
| 20260509091722 | 49 | 203 | 0.0 | 0.0 | 0.00 | 0.00 | 0.00 | 96 | 1014.2 |
| 20260509091207 | 49 | 225 | 0.0 | 0.0 | 0.00 | 0.00 | 0.00 | 96 | 1014.2 |
| 20260509090127 | 50 | 0 | 0.0 | 0.0 | 0.00 | 0.00 | 0.00 | 96 | 1014.2 |
| 20260509085607 | 50 | 0 | 0.0 | 0.0 | 0.00 | 0.00 | 0.00 | 96 | 1014.2 |
| 20260509085052 | 50 | 225 | 0.0 | 0.0 | 0.00 | 0.00 | 0.00 | 96 | 1014.3 |
| 20260509084532 | 50 | 293 | 0.0 | 0.0 | 0.00 | 0.00 | 0.00 | 96 | 1014.3 |
| 20260509084013 | 50 | 225 | 0.0 | 0.0 | 0.00 | 0.00 | 0.00 | 96 | 1014.4 |
| 20260509083453 | 51 | 225 | 0.0 | 0.0 | 0.00 | 0.00 | 0.00 | 96 | 1014.4 |
| 20260509082953 | 51 | 225 | 0.0 | 0.0 | 0.00 | 0.00 | 0.00 | 96 | 1014.5 |
| 20260509082438 | 51 | 225 | 0.0 | 0.0 | 0.00 | 0.00 | 0.00 | 96 | 1014.5 |
| 20260509081917 | 51 | 225 | 0.0 | 0.0 | 0.00 | 0.00 | 0.00 | 96 | 1014.4 |
| 20260509080838 | 51 | 248 | 0.0 | 0.0 | 0.00 | 0.00 | 0.00 | 96 | 1014.4 |
| 20260509080323 | 51 | 248 | 0.0 | 0.0 | 0.00 | 0.00 | 0.00 | 96 | 1014.6 |
| 20260509075803 | 51 | 225 | 0.0 | 0.0 | 0.00 | 0.00 | 0.00 | 96 | 1014.6 |
| 20260509075306 | 51 | 225 | 0.0 | 0.0 | 0.00 | 0.00 | 0.00 | 96 | 1014.6 |
| 20260509074743 | 51 | 248 | 0.0 | 0.0 | 0.00 | 0.00 | 0.00 | 96 | 1014.6 |
| 20260509074223 | 51 | 225 | 0.0 | 0.0 | 0.00 | 0.00 | 0.00 | 96 | 1014.7 |
| 20260509073708 | 51 | 225 | 0.0 | 0.0 | 0.00 | 0.00 | 0.00 | 96 | 1014.7 |
| 20260509073148 | 51 | 270 | 0.0 | 0.0 | 0.00 | 0.00 | 0.00 | 95 | 1014.7 |
| 20260509072628 | 51 | 225 | 0.0 | 0.0 | 0.00 | 0.00 | 0.00 | 95 | 1014.7 |
| 20260509072128 | 51 | 225 | 0.0 | 0.0 | 0.00 | 0.00 | 0.00 | 95 | 1014.7 |
| 20260509071608 | 51 | 248 | 0.0 | 0.0 | 0.00 | 0.00 | 0.00 | 94 | 1014.7 |
| 20260509071053 | 51 | 203 | 0.0 | 0.0 | 0.00 | 0.00 | 0.00 | 94 | 1014.7 |
| 20260509070533 | 51 | 225 | 0.0 | 0.0 | 0.00 | 0.00 | 0.00 | 94 | 1014.8 |
| 20260509070013 | 51 | 225 | 0.0 | 0.0 | 0.00 | 0.00 | 0.00 | 94 | 1014.8 |
| 20260509065453 | 51 | 203 | 0.0 | 0.0 | 0.00 | 0.00 | 0.01 | 94 | 1014.8 |
| 20260509064938 | 51 | 225 | 0.0 | 0.0 | 0.00 | 0.00 | 0.01 | 94 | 1014.8 |
| 20260509064419 | 51 | 225 | 0.0 | 0.0 | 0.00 | 0.00 | 0.01 | 94 | 1014.8 |
| 20260509063338 | 52 | 225 | 0.0 | 0.0 | 0.00 | 0.00 | 0.01 | 94 | 1014.8 |
| 20260509062823 | 52 | 248 | 0.0 | 0.0 | 0.00 | 0.00 | 0.01 | 94 | 1014.9 |
| 20260509062306 | 52 | 225 | 0.0 | 0.0 | 0.00 | 0.00 | 0.01 | 94 | 1014.9 |
| 20260509061743 | 52 | 225 | 0.0 | 0.0 | 0.00 | 0.00 | 0.01 | 94 | 1014.9 |
| 20260509061223 | 52 | 225 | 0.0 | 0.0 | 0.00 | 0.00 | 0.01 | 94 | 1014.9 |
| 20260509060708 | 52 | 225 | 0.0 | 0.0 | 0.00 | 0.00 | 0.01 | 94 | 1015.0 |
| 20260509060148 | 52 | 225 | 0.0 | 0.0 | 0.00 | 0.00 | 0.01 | 94 | 1015.0 |
| 20260509055628 | 52 | 225 | 0.0 | 0.0 | 0.00 | 0.00 | 0.01 | 94 | 1015.0 |
| 20260509055108 | 53 | 225 | 0.0 | 0.0 | 0.00 | 0.00 | 0.01 | 94 | 1015.0 |
| 20260509054553 | 53 | 203 | 0.0 | 0.0 | 0.00 | 0.00 | 0.01 | 94 | 1015.0 |
| 20260509054033 | 53 | 225 | 0.0 | 0.0 | 0.00 | 0.00 | 0.01 | 94 | 1015.0 |
| 20260509052954 | 53 | 248 | 0.0 | 0.0 | 0.00 | 0.00 | 0.01 | 94 | 1015.0 |
| 20260509052438 | 54 | 203 | 0.0 | 0.0 | 0.00 | 0.00 | 0.01 | 94 | 1015.0 |
| 20260509051918 | 54 | 225 | 0.0 | 0.0 | 0.00 | 0.00 | 0.01 | 94 | 1015.0 |
| 20260509051358 | 54 | 248 | 0.0 | 0.0 | 0.00 | 0.00 | 0.01 | 93 | 1015.0 |
| 20260509050838 | 54 | 203 | 0.0 | 0.0 | 0.00 | 0.00 | 0.01 | 93 | 1015.0 |
| 20260509050323 | 54 | 248 | 0.0 | 0.0 | 0.00 | 0.00 | 0.01 | 93 | 1014.9 |
| 20260509045243 | 54 | 225 | 1.0 | 1.0 | 0.00 | 0.00 | 0.01 | 92 | 1015.0 |
| 20260509044208 | 55 | 225 | 1.0 | 1.0 | 0.00 | 0.00 | 0.01 | 92 | 1014.8 |
| 20260509043648 | 55 | 225 | 1.0 | 1.0 | 0.00 | 0.00 | 0.01 | 92 | 1014.8 |
| 20260509043128 | 55 | 225 | 0.0 | 0.0 | 0.00 | 0.00 | 0.01 | 89 | 1014.7 |
| 20260509042608 | 55 | 180 | 0.0 | 0.0 | 0.00 | 0.00 | 0.01 | 89 | 1014.7 |
| 20260509041533 | 56 | 248 | 0.0 | 0.0 | 0.00 | 0.00 | 0.01 | 88 | 1014.7 |
| 20260509041013 | 56 | 180 | 0.0 | 0.0 | 0.00 | 0.00 | 0.01 | 88 | 1014.7 |
| 20260509040453 | 57 | 225 | 0.0 | 0.0 | 0.00 | 0.00 | 0.01 | 88 | 1014.7 |
| 20260509035938 | 57 | 225 | 0.0 | 0.0 | 0.00 | 0.00 | 0.01 | 87 | 1014.7 |
| 20260509035418 | 57 | 248 | 0.0 | 0.0 | 0.00 | 0.00 | 0.01 | 87 | 1014.6 |
| 20260509034918 | 58 | 270 | 0.0 | 0.0 | 0.00 | 0.00 | 0.01 | 87 | 1014.6 |
| 20260509034358 | 58 | 225 | 0.0 | 0.0 | 0.00 | 0.00 | 0.01 | 84 | 1014.6 |
| 20260509033838 | 58 | 225 | 0.0 | 0.0 | 0.00 | 0.00 | 0.01 | 84 | 1014.7 |
| 20260509033323 | 59 | 248 | 0.0 | 0.0 | 0.00 | 0.00 | 0.01 | 81 | 1014.7 |
| 20260509032803 | 60 | 248 | 0.0 | 0.0 | 0.00 | 0.00 | 0.01 | 81 | 1014.5 |
| 20260509032243 | 60 | 68 | 0.0 | 0.0 | 0.00 | 0.00 | 0.01 | 80 | 1014.5 |
| 20260509031723 | 61 | 225 | 0.0 | 0.0 | 0.00 | 0.00 | 0.01 | 79 | 1014.4 |
| 20260509031209 | 62 | 23 | 0.0 | 0.0 | 0.00 | 0.00 | 0.01 | 77 | 1014.4 |
| 20260509030648 | 62 | 270 | 0.0 | 0.0 | 0.00 | 0.00 | 0.01 | 77 | 1014.3 |
| 20260509030128 | 63 | 270 | 0.0 | 0.0 | 0.00 | 0.00 | 0.01 | 76 | 1014.3 |
| 20260509025608 | 63 | 68 | 2.0 | 2.0 | 0.00 | 0.00 | 0.01 | 76 | 1014.3 |
| 20260509025053 | 64 | 68 | 2.0 | 2.0 | 0.00 | 0.00 | 0.01 | 74 | 1014.3 |